Time;durP1;ratioP1;P1;durP2;ratioP2;P2;SDS_P1;SDS_P2;PMS_P1;PMS_P2;Temp;Humidity;BMP_temperature;BMP_pressure;BME280_temperature;BME280_humidity;BME280_pressure;Samples;Min_cycle;Max_cycle;Signal;HPM_P1;HPM_P2
2022/08/21 00:00:20;;;;;;;4.53;1.80;;;;;;;14.23;72.04;97463.09;5020125;28;20057;-53
2022/08/21 00:03:08;;;;;;;5.20;1.92;;;;;;;14.25;72.01;97461.72;5011311;28;20087;-55
2022/08/21 00:05:39;;;;;;;6.38;2.50;;;;;;;14.26;71.95;97462.53;5013453;28;20050;-55
2022/08/21 00:08:06;;;;;;;6.80;2.13;;;;;;;14.17;72.19;97460.38;5024528;28;20064;-54
2022/08/21 00:10:33;;;;;;;5.38;1.88;;;;;;;14.13;72.13;97459.28;5015873;28;20092;-55
2022/08/21 00:13:03;;;;;;;4.95;1.60;;;;;;;14.17;72.04;97456.81;5027552;28;20095;-52
2022/08/21 00:15:31;;;;;;;4.13;1.77;;;;;;;14.17;72.08;97451.38;5025601;28;20049;-52
2022/08/21 00:17:58;;;;;;;3.95;1.90;;;;;;;14.29;71.53;97456.53;5016507;28;20045;-53
2022/08/21 00:20:25;;;;;;;3.92;2.00;;;;;;;14.28;71.19;97449.47;5010638;28;20076;-52
2022/08/21 00:22:52;;;;;;;5.35;1.80;;;;;;;14.27;72.20;97453.28;5026626;28;20054;-54
2022/08/21 00:25:20;;;;;;;3.70;1.85;;;;;;;14.24;72.11;97454.66;5012663;28;20509;-53
2022/08/21 00:27:52;;;;;;;4.72;2.15;;;;;;;14.33;71.61;97454.91;5007241;28;20519;-54
2022/08/21 00:30:21;;;;;;;6.32;2.10;;;;;;;14.24;71.68;97445.66;5019166;28;20041;-53
2022/08/21 00:32:50;;;;;;;5.68;1.80;;;;;;;14.34;71.55;97442.91;5020416;28;20042;-52
2022/08/21 00:35:21;;;;;;;5.15;1.73;;;;;;;14.46;71.36;97439.06;5019571;28;20244;-57
2022/08/21 00:37:47;;;;;;;5.15;1.83;;;;;;;14.52;70.56;97444.22;5025714;28;20231;-56
2022/08/21 00:40:18;;;;;;;6.35;2.50;;;;;;;14.45;70.65;97449.19;5026536;28;20045;-54
2022/08/21 00:42:44;;;;;;;5.05;1.90;;;;;;;14.25;71.63;97444.56;5024887;28;20038;-54
2022/08/21 00:45:23;;;;;;;5.05;1.90;;;;;;;14.02;72.82;97441.31;5014632;28;20049;-54
2022/08/21 00:47:51;;;;;;;6.07;1.60;;;;;;;13.91;72.67;97435.06;5012701;28;20037;-55
2022/08/21 00:50:20;;;;;;;5.05;1.58;;;;;;;13.96;72.75;97439.69;5015012;28;20501;-53
2022/08/21 00:52:52;;;;;;;6.10;1.95;;;;;;;14.15;71.94;97440.75;5017788;28;20394;-52
2022/08/21 00:55:21;;;;;;;4.20;2.03;;;;;;;13.91;73.38;97432.34;5008058;28;20052;-51
2022/08/21 00:57:51;;;;;;;7.30;2.13;;;;;;;13.93;73.41;97435.59;5016885;28;20383;-52
2022/08/21 01:00:30;;;;;;;4.78;1.77;;;;;;;13.93;73.50;97432.06;5017419;28;20045;-52
2022/08/21 01:02:59;;;;;;;6.45;2.50;;;;;;;13.77;73.79;97430.16;5026876;28;20497;-50
2022/08/21 01:05:26;;;;;;;5.47;2.08;;;;;;;13.54;75.15;97434.22;5026530;28;20055;-56
2022/08/21 01:07:56;;;;;;;4.03;1.98;;;;;;;13.58;75.11;97432.59;5026333;28;20451;-56
2022/08/21 01:10:23;;;;;;;4.47;1.92;;;;;;;13.77;74.13;97435.59;5019177;28;20040;-55
2022/08/21 01:12:55;;;;;;;4.75;1.92;;;;;;;13.85;73.67;97436.13;5024072;28;20037;-54
2022/08/21 01:15:28;;;;;;;3.80;1.77;;;;;;;13.74;74.56;97432.59;5025758;28;20045;-54
2022/08/21 01:17:54;;;;;;;5.50;1.85;;;;;;;13.79;74.27;97429.88;5013306;28;20531;-55
2022/08/21 01:20:21;;;;;;;5.57;2.58;;;;;;;13.86;73.63;97427.69;5024550;28;20045;-56
2022/08/21 01:22:57;;;;;;;4.22;2.13;;;;;;;13.96;72.85;97426.88;5023463;28;20728;-53
2022/08/21 01:25:24;;;;;;;3.80;1.80;;;;;;;13.99;73.03;97434.50;5024718;28;20049;-55
2022/08/21 01:27:51;;;;;;;5.53;2.10;;;;;;;13.72;73.85;97435.59;5019356;28;20128;-53
2022/08/21 01:30:21;;;;;;;6.93;2.00;;;;;;;13.46;75.71;97432.81;5025590;28;20053;-52
2022/08/21 01:32:48;;;;;;;6.03;1.92;;;;;;;13.47;75.63;97425.47;5036654;28;20042;-52
2022/08/21 01:35:17;;;;;;;9.73;2.15;;;;;;;13.56;75.33;97421.16;5024648;28;20069;-54
2022/08/21 01:37:44;;;;;;;6.78;1.80;;;;;;;13.71;74.12;97417.63;5016049;28;20058;-53
2022/08/21 01:40:15;;;;;;;4.13;1.88;;;;;;;13.62;74.32;97420.06;5008082;28;20045;-52
2022/08/21 01:42:44;;;;;;;5.15;2.22;;;;;;;13.58;74.55;97418.16;5021275;28;20063;-53
2022/08/21 01:45:12;;;;;;;6.82;2.22;;;;;;;13.74;73.97;97414.38;5009725;28;20505;-55
2022/08/21 01:47:39;;;;;;;4.07;2.00;;;;;;;13.85;73.50;97414.34;5018687;28;20501;-56
2022/08/21 01:50:09;;;;;;;5.68;2.67;;;;;;;13.82;73.75;97415.72;5025242;28;20045;-51
2022/08/21 01:52:36;;;;;;;6.38;2.70;;;;;;;13.86;73.14;97419.53;5025973;28;20048;-50
2022/08/21 01:55:05;;;;;;;4.40;2.08;;;;;;;13.89;72.82;97419.00;5022971;28;20052;-54
2022/08/21 01:57:32;;;;;;;4.13;1.80;;;;;;;13.86;73.07;97416.81;5006951;28;20037;-52
2022/08/21 01:59:59;;;;;;;7.47;2.47;;;;;;;13.58;74.26;97413.53;5023056;28;20512;-52
2022/08/21 02:02:25;;;;;;;5.22;1.98;;;;;;;13.11;76.55;97407.16;5024474;28;20046;-52
2022/08/21 02:04:52;;;;;;;4.40;2.00;;;;;;;13.06;76.81;97399.00;5010623;28;20038;-51
2022/08/21 02:07:18;;;;;;;5.90;2.40;;;;;;;13.19;76.23;97408.56;5019599;28;20095;-53
2022/08/21 02:09:45;;;;;;;5.78;2.20;;;;;;;13.18;76.17;97410.44;5009684;28;20247;-53
2022/08/21 02:12:12;;;;;;;8.00;2.70;;;;;;;13.27;76.26;97406.13;5024683;28;20120;-53
2022/08/21 02:14:38;;;;;;;6.07;2.80;;;;;;;13.49;74.73;97410.53;5013235;28;20042;-52
2022/08/21 02:17:05;;;;;;;6.55;2.20;;;;;;;13.45;74.80;97401.25;5019641;28;20059;-52
2022/08/21 02:19:36;;;;;;;7.47;2.60;;;;;;;13.48;74.55;97403.47;5023693;28;20049;-55
2022/08/21 02:22:08;;;;;;;6.57;3.35;;;;;;;13.42;75.32;97398.25;5025447;28;20046;-56
2022/08/21 02:24:36;;;;;;;6.47;2.42;;;;;;;13.39;74.74;97400.41;5021413;28;20683;-54
2022/08/21 02:27:19;;;;;;;5.22;1.90;;;;;;;13.37;75.08;97393.63;5020925;28;20048;-51
2022/08/21 02:29:53;;;;;;;7.35;2.50;;;;;;;13.37;74.70;97397.16;5023475;28;20049;-52
2022/08/21 02:32:21;;;;;;;5.45;2.25;;;;;;;13.44;74.62;97401.50;5009149;28;20050;-50
2022/08/21 02:34:48;;;;;;;6.05;2.00;;;;;;;13.51;74.05;97393.94;5019421;28;20045;-54
2022/08/21 02:37:15;;;;;;;4.93;1.92;;;;;;;13.47;74.20;97390.94;5008832;28;20045;-54
2022/08/21 02:39:41;;;;;;;5.60;1.98;;;;;;;13.44;74.16;97396.06;5020728;28;20505;-56
2022/08/21 02:42:08;;;;;;;5.28;2.15;;;;;;;13.47;74.19;97395.53;5006286;28;20568;-54
2022/08/21 02:44:34;;;;;;;7.38;2.42;;;;;;;13.37;74.52;97396.34;5010933;28;20497;-51
2022/08/21 02:47:01;;;;;;;5.03;2.38;;;;;;;13.24;75.50;97398.47;5020885;28;20053;-56
2022/08/21 02:49:27;;;;;;;7.13;2.13;;;;;;;13.17;75.64;97397.13;5024365;28;20037;-54
2022/08/21 02:51:54;;;;;;;6.82;2.40;;;;;;;13.19;75.44;97397.69;5010994;28;20517;-55
2022/08/21 02:54:20;;;;;;;6.20;3.20;;;;;;;13.22;75.30;97394.41;5022785;28;20309;-52
2022/08/21 02:56:47;;;;;;;6.93;2.35;;;;;;;13.18;75.76;97394.13;5020417;28;20053;-53
2022/08/21 02:59:13;;;;;;;4.72;2.40;;;;;;;13.06;76.11;97399.00;5018465;28;20042;-53
2022/08/21 03:01:41;;;;;;;5.43;2.45;;;;;;;13.08;76.13;97400.34;5018168;28;20049;-53
2022/08/21 03:04:08;;;;;;;5.18;2.33;;;;;;;13.03;76.33;97394.91;5021218;28;20100;-53
2022/08/21 03:06:34;;;;;;;5.65;2.30;;;;;;;12.84;77.04;97392.69;5015296;28;20703;-55
2022/08/21 03:09:01;;;;;;;3.53;1.85;;;;;;;12.83;77.58;97396.47;5004803;28;20113;-50
2022/08/21 03:11:28;;;;;;;5.45;2.63;;;;;;;12.73;77.98;97400.00;5018049;28;20660;-52
2022/08/21 03:13:54;;;;;;;6.00;2.60;;;;;;;12.61;78.35;97393.94;5019687;28;20072;-55
2022/08/21 03:16:21;;;;;;;6.63;2.38;;;;;;;12.63;78.20;97396.41;5016930;28;20046;-55
2022/08/21 03:18:47;;;;;;;5.78;2.63;;;;;;;12.56;78.71;97394.72;5008011;28;20049;-56
2022/08/21 03:21:14;;;;;;;5.03;2.08;;;;;;;12.72;77.84;97398.31;5027309;28;20053;-55
2022/08/21 03:23:41;;;;;;;6.15;2.28;;;;;;;12.80;77.56;97399.75;5020822;28;20046;-56
2022/08/21 03:26:10;;;;;;;4.85;2.40;;;;;;;12.89;77.05;97391.88;5009205;28;20053;-55
2022/08/21 03:28:37;;;;;;;4.90;2.35;;;;;;;12.76;78.08;97395.91;5026993;28;20049;-56
2022/08/21 03:31:04;;;;;;;7.53;2.75;;;;;;;12.65;78.34;97400.50;5009977;28;20107;-56
2022/08/21 03:33:31;;;;;;;5.13;2.17;;;;;;;12.70;78.03;97394.25;5014045;28;20041;-54
2022/08/21 03:36:06;;;;;;;5.38;2.30;;;;;;;12.58;78.75;97395.31;5027589;28;20041;-55
2022/08/21 03:38:34;;;;;;;4.78;2.13;;;;;;;12.44;79.40;97396.84;5021683;28;20464;-53
2022/08/21 03:41:02;;;;;;;5.88;3.13;;;;;;;12.34;79.79;97395.72;5023985;28;20200;-55
2022/08/21 03:43:28;;;;;;;5.40;2.47;;;;;;;12.21;80.23;97394.25;5023389;28;20392;-55
2022/08/21 03:46:00;;;;;;;7.68;3.05;;;;;;;12.22;80.48;97401.34;5022151;28;20088;-53
2022/08/21 03:48:26;;;;;;;5.03;2.22;;;;;;;12.29;80.00;97394.84;5022253;28;20046;-51
2022/08/21 03:50:53;;;;;;;6.15;2.97;;;;;;;12.25;80.26;97397.28;5022874;28;20041;-56
2022/08/21 03:53:20;;;;;;;5.38;3.03;;;;;;;12.25;80.57;97400.00;5027204;28;20041;-53
2022/08/21 03:55:49;;;;;;;4.40;2.55;;;;;;;12.15;80.78;97403.47;5027358;28;20045;-51
2022/08/21 03:58:18;;;;;;;5.35;2.42;;;;;;;12.27;80.28;97402.47;5026480;28;20098;-49
2022/08/21 04:00:47;;;;;;;6.63;3.60;;;;;;;12.28;80.38;97404.91;5023744;28;20056;-54
2022/08/21 04:03:14;;;;;;;5.40;2.65;;;;;;;12.23;80.50;97416.56;5026973;28;20041;-51
2022/08/21 04:05:40;;;;;;;5.55;2.72;;;;;;;12.21;80.67;97407.03;5025407;28;20107;-51
2022/08/21 04:08:07;;;;;;;4.70;2.72;;;;;;;12.20;80.68;97413.56;5007712;28;20041;-54
2022/08/21 04:10:36;;;;;;;5.45;2.75;;;;;;;12.05;81.54;97420.50;5019507;28;20540;-51
2022/08/21 04:13:03;;;;;;;5.95;2.83;;;;;;;12.04;81.59;97418.84;5027587;28;20555;-55
2022/08/21 04:15:30;;;;;;;5.43;2.80;;;;;;;12.07;81.72;97422.94;5027516;28;20112;-52
2022/08/21 04:17:56;;;;;;;3.42;1.98;;;;;;;12.18;81.09;97427.38;5026201;28;20099;-54
2022/08/21 04:20:23;;;;;;;5.88;3.03;;;;;;;12.17;80.96;97431.16;5013894;28;20060;-52
2022/08/21 04:22:51;;;;;;;5.60;3.00;;;;;;;12.06;81.68;97430.25;5022264;28;20053;-54
2022/08/21 04:25:21;;;;;;;8.52;2.80;;;;;;;11.99;81.76;97440.50;5025752;28;20099;-53
2022/08/21 04:27:48;;;;;;;5.18;2.70;;;;;;;11.88;82.26;97434.19;5022150;28;20046;-53
2022/08/21 04:30:15;;;;;;;6.67;3.00;;;;;;;11.85;82.42;97442.84;5015046;28;20505;-55
2022/08/21 04:32:48;;;;;;;11.07;2.83;;;;;;;11.77;82.94;97440.59;5022614;28;20118;-52
2022/08/21 04:35:18;;;;;;;7.03;2.97;;;;;;;11.76;83.03;97441.69;5022833;28;20053;-55
2022/08/21 04:37:44;;;;;;;8.05;3.13;;;;;;;11.73;83.02;97436.75;5022506;28;20552;-55
2022/08/21 04:40:15;;;;;;;6.82;3.15;;;;;;;11.63;83.69;97448.31;5016203;28;20080;-54
2022/08/21 04:42:51;;;;;;;5.97;2.75;;;;;;;11.67;83.68;97450.28;5026231;28;20133;-51
2022/08/21 04:45:22;;;;;;;8.45;3.20;;;;;;;11.74;83.44;97441.09;5018364;28;20064;-51
2022/08/21 04:47:51;;;;;;;5.07;2.50;;;;;;;11.84;83.29;97444.72;5016249;28;20046;-52
2022/08/21 04:50:22;;;;;;;7.55;3.38;;;;;;;11.73;83.52;97450.31;5015689;28;20501;-53
2022/08/21 04:53:05;;;;;;;5.97;3.53;;;;;;;11.65;83.83;97448.91;5010689;28;20041;-53
2022/08/21 04:55:32;;;;;;;6.80;3.17;;;;;;;11.61;84.25;97453.22;5007084;28;20046;-52
2022/08/21 04:57:59;;;;;;;5.20;2.83;;;;;;;11.58;84.54;97459.97;5016169;28;20053;-54
2022/08/21 05:00:26;;;;;;;5.05;2.78;;;;;;;11.57;84.63;97450.16;5023657;28;20240;-54
2022/08/21 05:02:56;;;;;;;7.47;2.80;;;;;;;11.56;84.67;97452.09;5015578;28;20170;-51
2022/08/21 05:05:24;;;;;;;6.60;3.23;;;;;;;11.57;84.70;97450.16;5024530;28;20045;-49
2022/08/21 05:07:52;;;;;;;7.40;3.05;;;;;;;11.65;84.50;97448.91;5021519;28;20046;-51
2022/08/21 05:10:19;;;;;;;5.68;3.08;;;;;;;11.74;84.06;97460.91;5012858;28;20091;-54
2022/08/21 05:12:46;;;;;;;7.03;2.95;;;;;;;11.77;84.02;97462.28;5022871;28;20052;-55
2022/08/21 05:15:13;;;;;;;6.28;3.67;;;;;;;11.77;84.26;97460.41;5023589;28;20471;-54
2022/08/21 05:17:41;;;;;;;7.35;2.97;;;;;;;11.94;83.54;97464.91;5009236;28;20563;-55
2022/08/21 05:20:12;;;;;;;7.82;3.97;;;;;;;12.09;83.15;97459.59;5020428;28;20471;-52
2022/08/21 05:22:39;;;;;;;5.70;2.80;;;;;;;12.19;82.88;97458.03;5014535;28;20253;-52
2022/08/21 05:25:08;;;;;;;6.65;3.10;;;;;;;12.40;82.29;97458.19;5020969;28;20099;-53
2022/08/21 05:27:36;;;;;;;6.35;3.15;;;;;;;12.47;81.61;97467.75;5011097;28;20049;-54
2022/08/21 05:30:07;;;;;;;4.63;2.60;;;;;;;12.55;81.59;97468.31;5007202;28;20420;-53
2022/08/21 05:32:34;;;;;;;7.22;2.92;;;;;;;12.67;81.45;97470.81;5012103;28;20509;-51
2022/08/21 05:35:03;;;;;;;4.30;2.63;;;;;;;12.80;80.70;97470.38;5016673;28;20386;-48
2022/08/21 05:37:29;;;;;;;6.60;2.85;;;;;;;12.95;80.31;97466.09;5009743;28;20096;-53
2022/08/21 05:39:56;;;;;;;4.30;2.30;;;;;;;13.11;79.66;97472.41;5022179;28;20053;-51
2022/08/21 05:42:42;;;;;;;7.88;2.83;;;;;;;13.20;79.35;97472.72;5016585;28;20470;-51
2022/08/21 05:45:09;;;;;;;6.95;3.00;;;;;;;13.27;78.84;97473.28;5012278;28;20137;-50
2022/08/21 05:47:36;;;;;;;5.88;3.55;;;;;;;13.33;78.78;97485.81;5023475;28;20248;-48
2022/08/21 05:50:03;;;;;;;9.95;3.13;;;;;;;13.48;78.62;97478.78;5021132;28;20049;-54
2022/08/21 05:52:30;;;;;;;6.03;2.88;;;;;;;13.56;78.43;97474.75;5021652;28;20099;-63
2022/08/21 05:54:56;;;;;;;5.50;2.75;;;;;;;13.67;77.84;97470.94;5018406;28;20053;-63
2022/08/21 05:57:25;;;;;;;6.07;3.08;;;;;;;13.74;77.56;97471.50;5022879;28;20045;-63
2022/08/21 05:59:51;;;;;;;5.72;2.50;;;;;;;13.83;77.46;97474.53;5021670;28;20328;-62
2022/08/21 06:02:20;;;;;;;5.93;2.90;;;;;;;14.01;76.71;97475.06;5019530;28;20730;-63
2022/08/21 06:04:47;;;;;;;5.53;2.80;;;;;;;14.08;76.43;97475.59;5014110;28;20048;-63
2022/08/21 06:07:14;;;;;;;6.13;3.35;;;;;;;14.22;76.08;97480.53;5015268;28;20053;-63
2022/08/21 06:09:41;;;;;;;8.73;3.45;;;;;;;14.35;75.32;97469.06;5012386;28;20046;-63
2022/08/21 06:12:10;;;;;;;6.72;2.92;;;;;;;14.44;75.37;97481.03;5014022;28;20029;-63
2022/08/21 06:14:38;;;;;;;5.97;2.60;;;;;;;14.55;75.10;97481.00;5022509;28;20041;-63
2022/08/21 06:17:07;;;;;;;5.55;3.10;;;;;;;14.65;74.97;97477.44;5021946;28;20120;-64
2022/08/21 06:19:34;;;;;;;6.15;2.70;;;;;;;14.73;74.37;97482.34;5022097;28;20414;-63
2022/08/21 06:22:01;;;;;;;7.00;2.67;;;;;;;14.83;74.75;97492.44;5009526;28;20049;-63
2022/08/21 06:24:28;;;;;;;6.55;2.72;;;;;;;14.95;74.21;97482.03;5022550;28;20048;-63
2022/08/21 06:26:55;;;;;;;11.63;2.90;;;;;;;15.12;73.65;97485.53;5024951;28;20095;-63
2022/08/21 06:29:22;;;;;;;6.78;2.78;;;;;;;15.19;72.90;97484.13;5023934;28;20520;-63
2022/08/21 06:31:51;;;;;;;6.85;2.78;;;;;;;15.37;72.17;97486.50;5024838;28;20046;-63
2022/08/21 06:34:18;;;;;;;5.03;2.78;;;;;;;15.55;71.11;97477.66;5009380;28;20049;-63
2022/08/21 06:36:44;;;;;;;4.10;2.42;;;;;;;15.76;70.74;97473.97;5007611;28;20077;-63
2022/08/21 06:39:11;;;;;;;9.77;3.45;;;;;;;15.94;70.14;97467.91;5009257;28;20038;-63
2022/08/21 06:41:51;;;;;;;7.32;2.65;;;;;;;16.07;69.14;97468.34;5020155;28;20038;-63
2022/08/21 06:44:22;;;;;;;5.03;2.60;;;;;;;16.19;68.18;97471.53;5014345;28;20046;-63
2022/08/21 06:46:49;;;;;;;7.22;2.97;;;;;;;16.37;67.77;97467.25;5025291;28;20099;-63
2022/08/21 06:49:15;;;;;;;7.85;2.75;;;;;;;16.57;67.27;97464.59;5020189;28;20559;-64
2022/08/21 06:51:47;;;;;;;8.05;3.08;;;;;;;16.76;66.83;97460.03;5006646;28;20338;-63
2022/08/21 06:54:14;;;;;;;6.55;2.25;;;;;;;16.86;67.03;97466.47;5025977;28;20037;-63
2022/08/21 06:56:40;;;;;;;5.63;3.05;;;;;;;16.97;66.30;97462.53;5026229;28;20045;-63
2022/08/21 06:59:07;;;;;;;6.75;2.60;;;;;;;17.05;65.72;97460.25;5027079;28;20099;-63
2022/08/21 07:01:33;;;;;;;5.03;2.70;;;;;;;17.13;65.04;97463.19;5028283;28;20041;-63
2022/08/21 07:04:00;;;;;;;4.90;2.58;;;;;;;17.28;64.18;97461.34;5018047;28;20049;-63
2022/08/21 07:06:26;;;;;;;7.97;2.97;;;;;;;17.47;63.49;97461.38;5023260;28;20045;-63
2022/08/21 07:08:54;;;;;;;7.45;2.85;;;;;;;17.65;62.57;97465.22;5019384;28;20069;-63
2022/08/21 07:11:25;;;;;;;10.63;3.83;;;;;;;17.74;61.84;97457.16;5021889;28;20408;-63
2022/08/21 07:13:53;;;;;;;7.40;2.67;;;;;;;17.85;62.45;97459.72;5024996;28;20042;-63
2022/08/21 07:16:21;;;;;;;7.43;3.08;;;;;;;17.98;61.13;97458.97;5024791;28;20303;-63
2022/08/21 07:18:48;;;;;;;6.38;2.88;;;;;;;18.06;60.98;97461.03;5019667;28;20049;-63
2022/08/21 07:21:15;;;;;;;8.30;3.30;;;;;;;18.15;60.84;97454.91;5022999;28;20099;-63
2022/08/21 07:23:48;;;;;;;6.93;2.55;;;;;;;18.25;60.51;97457.47;5025466;28;20538;-63
2022/08/21 07:26:18;;;;;;;8.40;3.10;;;;;;;18.48;60.04;97460.38;5023236;28;20056;-63
2022/08/21 07:28:44;;;;;;;7.82;2.88;;;;;;;18.54;59.00;97456.41;5011867;28;20263;-63
2022/08/21 07:31:13;;;;;;;5.90;2.60;;;;;;;18.59;58.61;97461.81;5022940;28;20041;-63
2022/08/21 07:33:41;;;;;;;5.95;2.20;;;;;;;18.64;58.59;97458.16;5018189;28;20080;-63
2022/08/21 07:36:08;;;;;;;6.55;2.80;;;;;;;18.74;58.25;97459.06;5026901;28;20037;-63
2022/08/21 07:38:35;;;;;;;7.25;3.20;;;;;;;18.83;57.44;97454.50;5020134;28;20509;-63
2022/08/21 07:41:02;;;;;;;6.82;3.70;;;;;;;18.94;57.54;97452.38;5026678;28;20041;-63
2022/08/21 07:43:29;;;;;;;5.80;2.60;;;;;;;19.26;56.51;97456.13;5019681;28;20038;-63
2022/08/21 07:45:56;;;;;;;6.15;2.95;;;;;;;19.43;56.37;97460.19;5020575;28;20038;-63
2022/08/21 07:48:23;;;;;;;8.82;3.17;;;;;;;19.50;55.86;97449.59;5013507;28;20056;-63
2022/08/21 07:50:50;;;;;;;7.88;2.92;;;;;;;19.67;54.79;97450.84;5012223;28;20056;-63
2022/08/21 07:53:17;;;;;;;6.80;2.78;;;;;;;19.83;54.88;97451.31;5019034;28;20091;-63
2022/08/21 07:55:44;;;;;;;6.25;2.60;;;;;;;19.91;54.53;97442.34;5019407;28;20549;-63
2022/08/21 07:58:10;;;;;;;7.82;2.85;;;;;;;19.92;54.08;97448.63;5025759;28;20042;-63
2022/08/21 08:00:37;;;;;;;6.28;2.33;;;;;;;19.96;53.66;97444.13;5021125;28;20045;-63
2022/08/21 08:03:03;;;;;;;8.60;2.90;;;;;;;19.99;53.43;97444.38;5022928;28;20356;-63
2022/08/21 08:05:31;;;;;;;6.88;2.92;;;;;;;20.14;53.65;97442.34;5011296;28;20042;-63
2022/08/21 08:07:58;;;;;;;9.75;2.80;;;;;;;20.25;53.36;97440.97;5010086;28;20053;-63
2022/08/21 08:10:26;;;;;;;8.45;4.10;;;;;;;20.29;53.04;97438.41;5026370;28;20042;-63
2022/08/21 08:12:54;;;;;;;7.47;2.60;;;;;;;20.31;52.91;97443.59;5026455;28;20045;-62
2022/08/21 08:15:24;;;;;;;7.03;3.08;;;;;;;20.22;52.68;97438.84;5027521;28;20509;-63
2022/08/21 08:17:51;;;;;;;6.60;2.67;;;;;;;20.22;52.56;97441.59;5026033;28;20041;-63
2022/08/21 08:20:19;;;;;;;10.20;3.65;;;;;;;20.18;52.58;97443.34;5025864;28;20088;-64
2022/08/21 08:22:46;;;;;;;9.20;2.97;;;;;;;20.25;52.15;97435.47;5011400;28;20046;-64
2022/08/21 08:25:17;;;;;;;7.00;2.80;;;;;;;20.30;52.10;97437.28;5014768;28;20053;-64
2022/08/21 08:27:43;;;;;;;7.95;2.88;;;;;;;20.43;52.44;97429.25;5027048;28;20185;-63
2022/08/21 08:30:12;;;;;;;9.05;2.67;;;;;;;20.65;52.31;97425.63;5023106;28;20037;-64
2022/08/21 08:32:40;;;;;;;9.68;3.05;;;;;;;20.82;51.64;97432.34;5024500;28;20119;-63
2022/08/21 08:35:08;;;;;;;4.95;2.55;;;;;;;20.86;50.79;97430.56;5020804;28;20044;-63
2022/08/21 08:37:37;;;;;;;7.90;2.80;;;;;;;20.89;49.59;97427.19;5020538;28;20041;-63
2022/08/21 08:40:13;;;;;;;9.15;2.97;;;;;;;20.90;50.42;97432.38;5019720;28;20057;-63
2022/08/21 08:42:40;;;;;;;7.13;2.45;;;;;;;20.98;50.38;97427.25;5015106;28;20045;-63
2022/08/21 08:45:15;;;;;;;6.50;2.80;;;;;;;21.16;48.98;97417.88;5007249;28;20531;-63
2022/08/21 08:47:47;;;;;;;7.85;2.67;;;;;;;21.21;47.77;97411.44;5016056;28;20381;-64
2022/08/21 08:50:18;;;;;;;;;;;;;;;21.26;47.64;97411.25;5021488;28;20467;-63
2022/08/21 08:52:49;;;;;;;9.18;2.80;;;;;;;21.36;46.91;97406.56;5020114;28;19952;-63
2022/08/21 08:55:26;;;;;;;7.82;3.20;;;;;;;21.48;46.53;97405.94;5013259;28;20046;-63
2022/08/21 08:57:54;;;;;;;13.70;3.55;;;;;;;21.33;47.44;97410.00;5017977;28;20119;-63
2022/08/21 09:00:22;;;;;;;7.50;2.80;;;;;;;21.35;47.92;97410.47;5019849;28;20103;-64
2022/08/21 09:02:53;;;;;;;8.98;3.20;;;;;;;21.30;47.53;97411.44;5023324;28;20074;-63
2022/08/21 09:05:24;;;;;;;;;;;;;;;21.36;47.05;97407.41;5019308;28;20046;-63
2022/08/21 09:08:16;;;;;;;7.07;3.25;;;;;;;21.28;48.20;97405.44;5023497;28;20393;-63
2022/08/21 09:11:02;;;;;;;7.35;2.50;;;;;;;21.39;47.82;97404.00;5024064;28;20053;-63
2022/08/21 09:13:47;;;;;;;5.55;2.42;;;;;;;21.54;47.34;97410.97;5007872;28;20053;-63
2022/08/21 09:16:23;;;;;;;5.47;2.65;;;;;;;21.75;46.54;97398.53;5016709;28;20424;-64
2022/08/21 09:19:16;;;;;;;11.00;2.42;;;;;;;21.93;46.37;97389.09;5021464;28;20068;-63
2022/08/21 09:21:59;;;;;;;6.83;2.93;;;;;;;22.15;45.61;97387.25;5022483;28;20060;-63
2022/08/21 09:25:00;;;;;;;8.88;2.45;;;;;;;22.27;45.09;97388.53;5022294;28;20265;-63
2022/08/21 09:27:26;;;;;;;7.03;2.55;;;;;;;22.42;45.21;97390.75;5015317;28;20053;-64
2022/08/21 09:29:54;;;;;;;11.35;3.63;;;;;;;22.43;44.36;97386.84;5019128;28;20053;-63
2022/08/21 09:32:25;;;;;;;5.65;2.60;;;;;;;22.52;44.43;97386.00;5023210;28;20054;-63
2022/08/21 09:35:16;;;;;;;8.07;3.00;;;;;;;22.66;44.41;97381.09;5017801;28;20038;-63
2022/08/21 09:38:00;;;;;;;8.00;2.65;;;;;;;22.65;44.27;97387.78;5016565;28;20107;-63
2022/08/21 09:40:45;;;;;;;5.63;2.60;;;;;;;22.69;43.25;97380.44;5017475;28;20049;-63
2022/08/21 09:43:12;;;;;;;6.80;3.40;;;;;;;22.68;43.70;97387.13;5007063;28;20037;-64
2022/08/21 09:45:41;;;;;;;7.43;2.90;;;;;;;22.64;43.58;97386.16;5010274;28;20053;-63
2022/08/21 09:48:13;;;;;;;5.28;2.35;;;;;;;22.64;43.96;97379.81;5023703;28;20125;-63
2022/08/21 09:50:42;;;;;;;6.45;2.58;;;;;;;22.73;43.51;97377.81;5016539;28;20327;-63
2022/08/21 09:53:19;;;;;;;5.82;3.17;;;;;;;22.85;43.08;97380.69;5020270;28;20049;-63
2022/08/21 09:58:50;;;;;;;8.77;2.97;;;;;;;23.03;41.95;97385.31;5022629;28;20124;-63
2022/08/21 10:01:24;;;;;;;8.20;2.78;;;;;;;22.82;42.60;97380.53;5012989;28;20053;-63
2022/08/21 10:04:26;;;;;;;8.30;3.30;;;;;;;22.68;42.75;97378.00;5023240;28;20049;-63
2022/08/21 10:06:53;;;;;;;5.93;2.35;;;;;;;22.59;43.01;97378.88;5009121;28;20099;-63
2022/08/21 10:09:23;;;;;;;8.00;3.22;;;;;;;22.54;43.65;97372.69;5021557;28;20061;-63
2022/08/21 10:12:06;;;;;;;5.60;2.55;;;;;;;22.61;43.35;97373.00;5011044;28;20046;-63
2022/08/21 10:14:52;;;;;;;6.60;2.53;;;;;;;22.74;42.99;97368.41;5020022;28;20100;-63
2022/08/21 10:17:36;;;;;;;6.78;2.70;;;;;;;22.76;42.60;97366.13;5023829;28;20076;-63
2022/08/21 10:20:16;;;;;;;8.13;2.70;;;;;;;22.88;42.17;97367.38;5014589;28;20107;-63
2022/08/21 10:23:01;;;;;;;6.75;3.20;;;;;;;22.86;42.05;97362.97;5016481;28;20049;-63
2022/08/21 10:25:32;;;;;;;4.45;2.20;;;;;;;22.89;42.74;97358.75;5004541;28;20059;-63
2022/08/21 10:28:23;;;;;;;6.60;2.80;;;;;;;22.87;42.43;97355.50;5020580;28;20056;-63
2022/08/21 10:31:00;;;;;;;6.18;2.55;;;;;;;22.91;42.05;97361.16;5025380;28;20493;-64
2022/08/21 10:33:33;;;;;;;8.02;2.80;;;;;;;23.09;41.41;97348.88;5026905;28;20052;-63
2022/08/21 10:36:40;;;;;;;9.70;3.80;;;;;;;23.06;41.12;97346.78;5026856;28;20057;-63
2022/08/21 10:39:28;;;;;;;10.27;2.80;;;;;;;22.99;41.43;97349.25;5020623;28;20053;-64
2022/08/21 10:42:23;;;;;;;9.48;3.05;;;;;;;23.04;41.06;97343.56;5025996;28;20124;-63
2022/08/21 10:45:20;;;;;;;8.85;2.90;;;;;;;23.11;41.29;97343.81;5013320;28;20568;-63
2022/08/21 10:47:53;;;;;;;5.50;2.47;;;;;;;23.08;41.21;97350.03;5012459;28;20061;-63
2022/08/21 10:50:31;;;;;;;7.63;3.03;;;;;;;23.08;41.24;97338.97;5017632;28;20050;-63
2022/08/21 10:53:34;;;;;;;9.27;3.00;;;;;;;23.50;41.15;97329.91;5019588;28;20493;-63
2022/08/21 10:56:16;;;;;;;7.07;2.42;;;;;;;23.58;40.66;97332.94;5025267;28;20519;-63
2022/08/21 10:59:25;;;;;;;4.35;2.22;;;;;;;23.58;39.84;97332.94;5026574;28;20432;-68
2022/08/21 11:01:57;;;;;;;8.57;2.95;;;;;;;23.42;39.48;97327.19;5010443;28;20088;-66
2022/08/21 11:04:40;;;;;;;6.25;2.47;;;;;;;23.10;40.98;97330.34;5021928;28;20057;-64
2022/08/21 11:07:35;;;;;;;6.88;2.72;;;;;;;23.48;41.09;97332.19;5020412;28;20429;-67
2022/08/21 11:10:12;;;;;;;6.80;2.58;;;;;;;23.68;39.59;97318.69;5022834;28;20263;-63
2022/08/21 11:12:44;;;;;;;8.60;2.55;;;;;;;23.77;39.34;97321.38;5024282;28;20057;-64
2022/08/21 11:15:28;;;;;;;7.65;2.88;;;;;;;23.82;39.55;97323.91;5021940;28;20095;-67
2022/08/21 11:18:13;;;;;;;6.70;2.53;;;;;;;23.93;39.41;97326.22;5022181;28;20041;-67
2022/08/21 11:20:48;;;;;;;6.95;2.45;;;;;;;23.97;39.11;97316.09;5015409;28;20775;-66
2022/08/21 11:23:25;;;;;;;8.93;2.67;;;;;;;24.09;38.21;97324.44;5025705;28;20046;-66
2022/08/21 11:26:00;;;;;;;8.35;2.67;;;;;;;24.25;38.57;97307.19;5012033;28;20195;-68
2022/08/21 11:28:33;;;;;;;6.68;2.83;;;;;;;24.62;37.90;97311.94;5013074;28;20045;-64
2022/08/21 11:31:34;;;;;;;5.82;3.10;;;;;;;24.67;37.33;97306.97;5021653;28;20123;-67
2022/08/21 11:34:21;;;;;;;5.80;2.15;;;;;;;24.84;37.44;97310.66;5020157;28;20049;-65
2022/08/21 11:37:01;;;;;;;6.20;2.53;;;;;;;25.28;36.50;97303.66;5021406;28;20053;-65
2022/08/21 11:39:55;;;;;;;7.18;2.72;;;;;;;25.60;35.82;97298.22;5019589;28;20046;-65
2022/08/21 11:42:36;;;;;;;7.32;2.70;;;;;;;25.86;35.24;97287.81;5014678;28;20134;-65
2022/08/21 11:45:12;;;;;;;;;;;;;;;25.90;34.79;97292.28;5014385;28;20444;-66
2022/08/21 11:47:54;;;;;;;7.78;2.60;;;;;;;25.74;35.02;97292.25;5016146;28;20389;-67
2022/08/21 11:50:27;;;;;;;7.90;2.70;;;;;;;25.51;35.38;97292.81;5016024;28;20064;-67
2022/08/21 11:53:09;;;;;;;6.47;2.40;;;;;;;25.74;35.47;97286.72;5020551;28;20120;-64
2022/08/21 11:55:45;;;;;;;6.07;2.25;;;;;;;25.91;34.81;97293.09;5017696;28;20398;-64